Terminal Aerodrome Forecast
Issued by NWS Charleston, WV

Current Version | Previous Version | Text Only | Print | Product List | Glossary Off
Versions: 1 2 3 4 5 6 7 8 9 10 11 12 13 14 15 16 17 18 19 20 21 22 23 24

000
FTUS41 KRLX 161100 RRA
TAFBKW
TAF
KBKW 161153Z 1612/1712 17012G18KT 6SM -SHRA OVC026
     FM161500 19010G15KT P6SM OVC030
     FM161800 26013G23KT 5SM -SHRA OVC024
     FM162000 27012G21KT P6SM OVC017
     FM170400 28012G21KT P6SM OVC008=

USA.gov is the U.S. government's official web portal to all federal, state and local government web resources and services.